Time;durP1;ratioP1;P1;durP2;ratioP2;P2;SDS_P1;SDS_P2;PMS_P1;PMS_P2;Temp;Humidity;BMP_temperature;BMP_pressure;BME280_temperature;BME280_humidity;BME280_pressure;Samples;Min_cycle;Max_cycle;Signal;HPM_P1;HPM_P2
2024/03/22 00:01:45;;;;;;;;;;;;;;;;;;5023826;28;5039;-74
2024/03/22 00:04:10;;;;;;;;;;;;;;;;;;5025024;28;3488;-74
2024/03/22 00:06:35;;;;;;;;;;;;;;;;;;5016533;28;4631;-74
2024/03/22 00:09:01;;;;;;;;;;;;;;;;;;5025063;28;4791;-75
2024/03/22 00:11:26;;;;;;;;;;;;;;;;;;5023636;28;4504;-75
2024/03/22 00:13:52;;;;;;;;;;;;;;;;;;5019134;28;5182;-74
2024/03/22 00:16:17;;;;;;;;;;;;;;;;;;5025004;28;3464;-75
2024/03/22 00:18:42;;;;;;;;;;;;;;;;;;5024685;28;5188;-74
2024/03/22 00:21:08;;;;;;;;;;;;;;;;;;5013945;28;4706;-75
2024/03/22 00:23:34;;;;;;;;;;;;;;;;;;5015147;28;4533;-74
2024/03/22 00:25:59;;;;;;;;;;;;;;;;;;5023405;28;5172;-75
2024/03/22 00:28:24;;;;;;;;;;;;;;;;;;5025161;28;3537;-75
2024/03/22 00:30:50;;;;;;;;;;;;;;;;;;5026119;28;4478;-75
2024/03/22 00:33:15;;;;;;;;;;;;;;;;;;5020552;28;4676;-75
2024/03/22 00:35:40;;;;;;;;;;;;;;;;;;5027263;28;4945;-75
2024/03/22 00:38:06;;;;;;;;;;;;;;;;;;5025045;28;4909;-76
2024/03/22 00:40:31;;;;;;;;;;;;;;;;;;5026452;28;5097;-75
2024/03/22 00:42:57;;;;;;;;;;;;;;;;;;5025563;28;3566;-75
2024/03/22 00:45:22;;;;;;;;;;;;;;;;;;5038726;28;5686;-75
2024/03/22 00:47:47;;;;;;;;;;;;;;;;;;5021035;28;5157;-75
2024/03/22 00:50:13;;;;;;;;;;;;;;;;;;5022008;28;4665;-74
2024/03/22 00:52:39;;;;;;;;;;;;;;;;;;5023784;28;5130;-74
2024/03/22 00:55:05;;;;;;;;;;;;;;;;;;5025970;28;3375;-74
2024/03/22 00:57:30;;;;;;;;;;;;;;;;;;5022410;28;5197;-74
2024/03/22 00:59:55;;;;;;;;;;;;;;;;;;5024619;28;5070;-74
2024/03/22 01:02:22;;;;;;;;;;;;;;;;;;5022618;28;4949;-75
2024/03/22 01:04:47;;;;;;;;;;;;;;;;;;5034620;28;5115;-75
2024/03/22 01:07:13;;;;;;;;;;;;;;;;;;5021527;28;3402;-75
2024/03/22 01:09:38;;;;;;;;;;;;;;;;;;5024017;28;4828;-75
2024/03/22 01:12:04;;;;;;;;;;;;;;;;;;5021548;28;5324;-75
2024/03/22 01:14:29;;;;;;;;;;;;;;;;;;5025070;28;4930;-74
2024/03/22 01:16:55;;;;;;;;;;;;;;;;;;5024414;28;5122;-75
2024/03/22 01:19:21;;;;;;;;;;;;;;;;;;5026797;28;3180;-74
2024/03/22 01:21:46;;;;;;;;;;;;;;;;;;5022877;28;5015;-75
2024/03/22 01:24:12;;;;;;;;;;;;;;;;;;5023192;28;4646;-75
2024/03/22 01:26:37;;;;;;;;;;;;;;;;;;5004859;28;5186;-75
2024/03/22 01:29:03;;;;;;;;;;;;;;;;;;5014940;28;5175;-74
2024/03/22 01:31:28;;;;;;;;;;;;;;;;;;5022218;28;5248;-76
2024/03/22 01:33:54;;;;;;;;;;;;;;;;;;5023005;28;3406;-75
2024/03/22 01:36:19;;;;;;;;;;;;;;;;;;5023257;28;4885;-76
2024/03/22 01:38:44;;;;;;;;;;;;;;;;;;5025421;28;5314;-75
2024/03/22 01:41:10;;;;;;;;;;;;;;;;;;5022166;28;4491;-76
2024/03/22 01:43:35;;;;;;;;;;;;;;;;;;5022183;28;4573;-75
2024/03/22 01:46:00;;;;;;;;;;;;;;;;;;5017988;28;3419;-75
2024/03/22 01:48:26;;;;;;;;;;;;;;;;;;5024064;28;5011;-76
2024/03/22 01:50:51;;;;;;;;;;;;;;;;;;5019834;28;4650;-75
2024/03/22 01:53:17;;;;;;;;;;;;;;;;;;5024915;28;4712;-75
2024/03/22 01:55:42;;;;;;;;;;;;;;;;;;5018972;28;5475;-75
2024/03/22 01:58:08;;;;;;;;;;;;;;;;;;5027865;28;1216;-75
2024/03/22 02:00:33;;;;;;;;;;;;;;;;;;5035622;28;5098;-76
2024/03/22 02:02:58;;;;;;;;;;;;;;;;;;5022875;28;5020;-75
2024/03/22 02:05:24;;;;;;;;;;;;;;;;;;5015542;28;4524;-74
2024/03/22 02:07:49;;;;;;;;;;;;;;;;;;5022765;28;4519;-75
2024/03/22 02:10:16;;;;;;;;;;;;;;;;;;5024628;28;4057;-74
2024/03/22 02:12:41;;;;;;;;;;;;;;;;;;5018716;28;5083;-75
2024/03/22 02:15:08;;;;;;;;;;;;;;;;;;5019243;28;4915;-75
2024/03/22 02:17:33;;;;;;;;;;;;;;;;;;5019603;28;5215;-75
2024/03/22 02:19:59;;;;;;;;;;;;;;;;;;5021207;28;4936;-75
2024/03/22 02:22:24;;;;;;;;;;;;;;;;;;5024349;28;3506;-74
2024/03/22 02:24:50;;;;;;;;;;;;;;;;;;5022738;28;5445;-74
2024/03/22 02:27:15;;;;;;;;;;;;;;;;;;5022880;28;4489;-74
2024/03/22 02:29:40;;;;;;;;;;;;;;;;;;5023667;28;5046;-74
2024/03/22 02:32:06;;;;;;;;;;;;;;;;;;5024002;28;5128;-75
2024/03/22 02:34:31;;;;;;;;;;;;;;;;;;5019979;28;4530;-74
2024/03/22 02:36:57;;;;;;;;;;;;;;;;;;5020891;28;3565;-74
2024/03/22 02:39:22;;;;;;;;;;;;;;;;;;5014283;28;6028;-74
2024/03/22 02:41:47;;;;;;;;;;;;;;;;;;5024751;28;5094;-74
2024/03/22 02:44:13;;;;;;;;;;;;;;;;;;5022029;28;5065;-74
2024/03/22 02:46:38;;;;;;;;;;;;;;;;;;5021253;28;5213;-74
2024/03/22 02:49:03;;;;;;;;;;;;;;;;;;5024660;28;3514;-74
2024/03/22 02:51:29;;;;;;;;;;;;;;;;;;5017456;28;5117;-73
2024/03/22 02:53:54;;;;;;;;;;;;;;;;;;5023940;28;4890;-74
2024/03/22 02:56:20;;;;;;;;;;;;;;;;;;5023354;28;5034;-75
2024/03/22 02:58:45;;;;;;;;;;;;;;;;;;5026445;28;4900;-75
2024/03/22 03:01:10;;;;;;;;;;;;;;;;;;5027589;28;1071;-75
2024/03/22 03:03:36;;;;;;;;;;;;;;;;;;5025731;28;4995;-75
2024/03/22 03:06:01;;;;;;;;;;;;;;;;;;5022291;28;4761;-76
2024/03/22 03:08:26;;;;;;;;;;;;;;;;;;5024919;28;5060;-74
2024/03/22 03:10:52;;;;;;;;;;;;;;;;;;5021514;28;5093;-75
2024/03/22 03:13:17;;;;;;;;;;;;;;;;;;5023987;28;3336;-74
2024/03/22 03:15:43;;;;;;;;;;;;;;;;;;5021745;28;5036;-75
2024/03/22 03:18:08;;;;;;;;;;;;;;;;;;5019461;28;5173;-74
2024/03/22 03:20:33;;;;;;;;;;;;;;;;;;5023743;28;5801;-74
2024/03/22 03:22:59;;;;;;;;;;;;;;;;;;5025739;28;5105;-74
2024/03/22 03:25:25;;;;;;;;;;;;;;;;;;5023905;28;3508;-74
2024/03/22 03:27:51;;;;;;;;;;;;;;;;;;5027031;28;6429;-75
2024/03/22 03:30:16;;;;;;;;;;;;;;;;;;5027816;28;4846;-75
2024/03/22 03:32:42;;;;;;;;;;;;;;;;;;5027131;28;5108;-74
2024/03/22 03:35:07;;;;;;;;;;;;;;;;;;5027977;28;5109;-74
2024/03/22 03:37:32;;;;;;;;;;;;;;;;;;5028961;28;5318;-74
2024/03/22 03:39:58;;;;;;;;;;;;;;;;;;5029283;28;1052;-74
2024/03/22 03:42:23;;;;;;;;;;;;;;;;;;5028611;28;4974;-74
2024/03/22 03:44:49;;;;;;;;;;;;;;;;;;5024554;28;5055;-73
2024/03/22 03:47:15;;;;;;;;;;;;;;;;;;5025925;28;4549;-74
2024/03/22 03:49:40;;;;;;;;;;;;;;;;;;5028600;28;4495;-74
2024/03/22 03:52:06;;;;;;;;;;;;;;;;;;5026792;28;3443;-75
2024/03/22 03:54:31;;;;;;;;;;;;;;;;;;5024694;28;4531;-75
2024/03/22 03:56:56;;;;;;;;;;;;;;;;;;5026726;28;5311;-74
2024/03/22 03:59:22;;;;;;;;;;;;;;;;;;5027226;28;4487;-75
2024/03/22 04:01:47;;;;;;;;;;;;;;;;;;5026144;28;4505;-75
2024/03/22 04:04:13;;;;;;;;;;;;;;;;;;5028465;28;3437;-74
2024/03/22 04:06:38;;;;;;;;;;;;;;;;;;5033872;28;4526;-75
2024/03/22 04:09:03;;;;;;;;;;;;;;;;;;5029329;28;4988;-75
2024/03/22 04:11:29;;;;;;;;;;;;;;;;;;5023842;28;4932;-75
2024/03/22 04:13:54;;;;;;;;;;;;;;;;;;5026673;28;4743;-75
2024/03/22 04:16:20;;;;;;;;;;;;;;;;;;5029382;28;3536;-74
2024/03/22 04:18:45;;;;;;;;;;;;;;;;;;5024340;28;5006;-75
2024/03/22 04:21:10;;;;;;;;;;;;;;;;;;5028084;28;4632;-74
2024/03/22 04:23:36;;;;;;;;;;;;;;;;;;5025917;28;5160;-75
2024/03/22 04:26:01;;;;;;;;;;;;;;;;;;5028351;28;5088;-75
2024/03/22 04:28:27;;;;;;;;;;;;;;;;;;5027426;28;4491;-75
2024/03/22 04:30:55;;;;;;;;;;;;;;;;;;5025587;28;3403;-74
2024/03/22 04:33:20;;;;;;;;;;;;;;;;;;5024667;28;5188;-75
2024/03/22 04:35:46;;;;;;;;;;;;;;;;;;5026890;28;4630;-75
2024/03/22 04:38:11;;;;;;;;;;;;;;;;;;5027113;28;5117;-74
2024/03/22 04:40:36;;;;;;;;;;;;;;;;;;5023030;28;4666;-75
2024/03/22 04:43:02;;;;;;;;;;;;;;;;;;5027273;28;3367;-74
2024/03/22 04:45:27;;;;;;;;;;;;;;;;;;5026341;28;4803;-74
2024/03/22 04:47:52;;;;;;;;;;;;;;;;;;5015209;28;5139;-75
2024/03/22 04:50:18;;;;;;;;;;;;;;;;;;5016705;28;4482;-75
2024/03/22 04:52:43;;;;;;;;;;;;;;;;;;5023388;28;5057;-75
2024/03/22 04:55:08;;;;;;;;;;;;;;;;;;5027836;28;1315;-74
2024/03/22 04:57:34;;;;;;;;;;;;;;;;;;5021759;28;4442;-75
2024/03/22 04:59:59;;;;;;;;;;;;;;;;;;5021058;28;4529;-75
2024/03/22 05:02:24;;;;;;;;;;;;;;;;;;5032417;28;5123;-74
2024/03/22 05:04:50;;;;;;;;;;;;;;;;;;5022863;28;4992;-74
2024/03/22 05:07:15;;;;;;;;;;;;;;;;;;5022129;28;3384;-71
2024/03/22 05:09:40;;;;;;;;;;;;;;;;;;5023011;28;5000;-67
2024/03/22 05:12:06;;;;;;;;;;;;;;;;;;5028555;28;4996;-70
2024/03/22 05:14:31;;;;;;;;;;;;;;;;;;5025130;28;5139;-70
2024/03/22 05:16:57;;;;;;;;;;;;;;;;;;5026868;28;5169;-71
2024/03/22 05:19:22;;;;;;;;;;;;;;;;;;5017637;28;3400;-71
2024/03/22 05:21:47;;;;;;;;;;;;;;;;;;5023747;28;4630;-69
2024/03/22 05:24:13;;;;;;;;;;;;;;;;;;5028073;28;4886;-68
2024/03/22 05:26:38;;;;;;;;;;;;;;;;;;5028406;28;4470;-67
2024/03/22 05:29:04;;;;;;;;;;;;;;;;;;5026194;28;5201;-68
2024/03/22 05:31:29;;;;;;;;;;;;;;;;;;5027038;28;5108;-68
2024/03/22 05:33:54;;;;;;;;;;;;;;;;;;5026906;28;3394;-73
2024/03/22 05:36:20;;;;;;;;;;;;;;;;;;5028106;28;5015;-70
2024/03/22 05:38:45;;;;;;;;;;;;;;;;;;5027624;28;5293;-73
2024/03/22 05:41:10;;;;;;;;;;;;;;;;;;5027345;28;4879;-68
2024/03/22 05:43:36;;;;;;;;;;;;;;;;;;5026938;28;5090;-67
2024/03/22 05:46:01;;;;;;;;;;;;;;;;;;5023574;28;1145;-68
2024/03/22 05:48:26;;;;;;;;;;;;;;;;;;5017456;28;5047;-71
2024/03/22 05:50:52;;;;;;;;;;;;;;;;;;5026028;28;4711;-69
2024/03/22 05:53:18;;;;;;;;;;;;;;;;;;5025796;28;4524;-69
2024/03/22 05:55:43;;;;;;;;;;;;;;;;;;5023137;28;5120;-69
2024/03/22 05:58:09;;;;;;;;;;;;;;;;;;5026976;28;3371;-69
2024/03/22 06:00:34;;;;;;;;;;;;;;;;;;5027072;28;4500;-71
2024/03/22 06:03:00;;;;;;;;;;;;;;;;;;5025683;28;4878;-69
2024/03/22 06:05:25;;;;;;;;;;;;;;;;;;5027306;28;5270;-70
2024/03/22 06:07:50;;;;;;;;;;;;;;;;;;5026183;28;4937;-67
2024/03/22 06:10:16;;;;;;;;;;;;;;;;;;5024809;28;3089;-66
2024/03/22 06:12:44;;;;;;;;;;;;;;;;;;5014464;28;4441;-64
2024/03/22 06:15:09;;;;;;;;;;;;;;;;;;5016967;28;5010;-65
2024/03/22 06:17:35;;;;;;;;;;;;;;;;;;5015129;28;5182;-64
2024/03/22 06:20:00;;;;;;;;;;;;;;;;;;5009963;28;5525;-64
2024/03/22 06:22:26;;;;;;;;;;;;;;;;;;5014580;28;5343;-63
2024/03/22 06:24:52;;;;;;;;;;;;;;;;;;5012107;28;3481;-63
2024/03/22 06:27:17;;;;;;;;;;;;;;;;;;5015434;28;4460;-64
2024/03/22 06:29:42;;;;;;;;;;;;;;;;;;5014637;28;4906;-64
2024/03/22 06:32:08;;;;;;;;;;;;;;;;;;5014186;28;5062;-62
2024/03/22 06:34:33;;;;;;;;;;;;;;;;;;5012843;28;5304;-62
2024/03/22 06:36:59;;;;;;;;;;;;;;;;;;5012754;28;3948;-62
2024/03/22 06:39:24;;;;;;;;;;;;;;;;;;5012377;28;5090;-61
2024/03/22 06:41:49;;;;;;;;;;;;;;;;;;5012640;28;5148;-64
2024/03/22 06:44:15;;;;;;;;;;;;;;;;;;5010875;28;5212;-65
2024/03/22 06:46:40;;;;;;;;;;;;;;;;;;5012570;28;5331;-65
2024/03/22 06:49:05;;;;;;;;;;;;;;;;;;5013843;28;3463;-63
2024/03/22 06:51:31;;;;;;;;;;;;;;;;;;5011138;28;5042;-66
2024/03/22 06:53:56;;;;;;;;;;;;;;;;;;5014187;28;5307;-64
2024/03/22 06:56:21;;;;;;;;;;;;;;;;;;5013506;28;5070;-66
2024/03/22 06:58:47;;;;;;;;;;;;;;;;;;5014270;28;5096;-67
2024/03/22 07:01:12;;;;;;;;;;;;;;;;;;5006727;28;3573;-63
2024/03/22 07:03:37;;;;;;;;;;;;;;;;;;5018669;28;5036;-65
2024/03/22 07:06:04;;;;;;;;;;;;;;;;;;5018533;28;5062;-64
2024/03/22 07:08:29;;;;;;;;;;;;;;;;;;5017956;28;5131;-63
2024/03/22 07:10:54;;;;;;;;;;;;;;;;;;5015524;28;5030;-68
2024/03/22 07:13:20;;;;;;;;;;;;;;;;;;5018764;28;1303;-66
2024/03/22 07:15:47;;;;;;;;;;;;;;;;;;5018298;28;4466;-65
2024/03/22 07:18:12;;;;;;;;;;;;;;;;;;5015759;28;5165;-64
2024/03/22 07:20:38;;;;;;;;;;;;;;;;;;5013737;28;5054;-66
2024/03/22 07:23:04;;;;;;;;;;;;;;;;;;5017889;28;5068;-68
2024/03/22 07:25:29;;;;;;;;;;;;;;;;;;5008147;28;5120;-64
2024/03/22 07:27:55;;;;;;;;;;;;;;;;;;5018322;28;1421;-66
2024/03/22 07:30:21;;;;;;;;;;;;;;;;;;5015239;28;4658;-66
2024/03/22 07:32:47;;;;;;;;;;;;;;;;;;5017386;28;4864;-64
2024/03/22 07:35:12;;;;;;;;;;;;;;;;;;5017360;28;5157;-67
2024/03/22 07:37:38;;;;;;;;;;;;;;;;;;5018117;28;4700;-69
2024/03/22 07:40:05;;;;;;;;;;;;;;;;;;5016045;28;3316;-66
2024/03/22 07:42:30;;;;;;;;;;;;;;;;;;5016752;28;5062;-68
2024/03/22 07:44:56;;;;;;;;;;;;;;;;;;5015931;28;4571;-65
2024/03/22 07:47:21;;;;;;;;;;;;;;;;;;5016232;28;5172;-67
2024/03/22 07:49:46;;;;;;;;;;;;;;;;;;5014944;28;5164;-66
2024/03/22 07:52:12;;;;;;;;;;;;;;;;;;5016105;28;1926;-71
2024/03/22 07:54:37;;;;;;;;;;;;;;;;;;5017155;28;4646;-67
2024/03/22 07:57:03;;;;;;;;;;;;;;;;;;5016427;28;4540;-62
2024/03/22 07:59:29;;;;;;;;;;;;;;;;;;5015318;28;4514;-60
2024/03/22 08:01:54;;;;;;;;;;;;;;;;;;5014397;28;4624;-60
2024/03/22 08:04:20;;;;;;;;;;;;;;;;;;5006947;28;1301;-62
2024/03/22 08:06:45;;;;;;;;;;;;;;;;;;5015132;28;4977;-62
2024/03/22 08:09:11;;;;;;;;;;;;;;;;;;5014312;28;4721;-62
2024/03/22 08:11:36;;;;;;;;;;;;;;;;;;5013448;28;5163;-61
2024/03/22 08:14:03;;;;;;;;;;;;;;;;;;5016790;28;5163;-60
2024/03/22 08:16:31;;;;;;;;;;;;;;;;;;5015542;28;5185;-60
2024/03/22 08:18:56;;;;;;;;;;;;;;;;;;5016202;28;3242;-61
2024/03/22 08:21:22;;;;;;;;;;;;;;;;;;5015495;28;4500;-59
2024/03/22 08:23:47;;;;;;;;;;;;;;;;;;5015827;28;5050;-58
2024/03/22 08:26:13;;;;;;;;;;;;;;;;;;5014931;28;4688;-59
2024/03/22 08:28:38;;;;;;;;;;;;;;;;;;5008836;28;5184;-61
2024/03/22 08:31:06;;;;;;;;;;;;;;;;;;5014306;28;3013;-60
2024/03/22 08:33:32;;;;;;;;;;;;;;;;;;5016542;28;4764;-60
2024/03/22 08:35:57;;;;;;;;;;;;;;;;;;5013798;28;5140;-61
2024/03/22 08:38:24;;;;;;;;;;;;;;;;;;5017034;28;4642;-60
2024/03/22 08:40:50;;;;;;;;;;;;;;;;;;5015165;28;5137;-60
2024/03/22 08:43:16;;;;;;;;;;;;;;;;;;5017024;28;1182;-61
2024/03/22 08:45:41;;;;;;;;;;;;;;;;;;5013462;28;4987;-62
2024/03/22 08:48:07;;;;;;;;;;;;;;;;;;5014695;28;4616;-60
2024/03/22 08:50:32;;;;;;;;;;;;;;;;;;5011266;28;5077;-59
2024/03/22 08:52:58;;;;;;;;;;;;;;;;;;5014410;28;5007;-59
2024/03/22 08:55:23;;;;;;;;;;;;;;;;;;5015033;28;3419;-61
2024/03/22 08:57:48;;;;;;;;;;;;;;;;;;5011789;28;4891;-62
2024/03/22 09:00:14;;;;;;;;;;;;;;;;;;5014662;28;5149;-62
2024/03/22 09:02:39;;;;;;;;;;;;;;;;;;5012785;28;5246;-65
2024/03/22 09:05:05;;;;;;;;;;;;;;;;;;5021495;28;5107;-68
2024/03/22 09:07:30;;;;;;;;;;;;;;;;;;4991171;28;5047;-70
2024/03/22 09:09:56;;;;;;;;;;;;;;;;;;5015699;28;2014;-67
2024/03/22 09:12:21;;;;;;;;;;;;;;;;;;5014423;28;5092;-69
2024/03/22 09:14:46;;;;;;;;;;;;;;;;;;5013654;28;4514;-67
2024/03/22 09:17:12;;;;;;;;;;;;;;;;;;5013915;28;4524;-66
2024/03/22 09:19:37;;;;;;;;;;;;;;;;;;5013618;28;5126;-65
2024/03/22 09:22:03;;;;;;;;;;;;;;;;;;5016423;28;1247;-67
2024/03/22 09:24:28;;;;;;;;;;;;;;;;;;5014049;28;4888;-65
2024/03/22 09:26:54;;;;;;;;;;;;;;;;;;5014089;28;5087;-66
2024/03/22 09:29:19;;;;;;;;;;;;;;;;;;5013156;28;4786;-66
2024/03/22 09:31:44;;;;;;;;;;;;;;;;;;5014012;28;4731;-65
2024/03/22 09:34:12;;;;;;;;;;;;;;;;;;5014540;28;3463;-66
2024/03/22 09:36:38;;;;;;;;;;;;;;;;;;4990965;28;4933;-64
2024/03/22 09:39:03;;;;;;;;;;;;;;;;;;5015195;28;4949;-63
2024/03/22 09:41:29;;;;;;;;;;;;;;;;;;5014014;28;5021;-64
2024/03/22 09:43:56;;;;;;;;;;;;;;;;;;5013048;28;5125;-62
2024/03/22 09:46:21;;;;;;;;;;;;;;;;;;5013210;28;3588;-62
2024/03/22 09:48:47;;;;;;;;;;;;;;;;;;5013605;28;5036;-64
2024/03/22 09:51:13;;;;;;;;;;;;;;;;;;5011310;28;5064;-63
2024/03/22 09:53:38;;;;;;;;;;;;;;;;;;5014405;28;4652;-65
2024/03/22 09:56:03;;;;;;;;;;;;;;;;;;4992823;28;4745;-64
2024/03/22 09:58:29;;;;;;;;;;;;;;;;;;5015435;28;4921;-66
2024/03/22 10:01:00;;;;;;;;;;;;;;;;;;5014022;28;3586;-71
2024/03/22 10:03:27;;;;;;;;;;;;;;;;;;5014895;28;5190;-75
2024/03/22 10:05:52;;;;;;;;;;;;;;;;;;5015675;28;5004;-72
2024/03/22 10:08:17;;;;;;;;;;;;;;;;;;5013793;28;5072;-72
2024/03/22 10:10:43;;;;;;;;;;;;;;;;;;5012218;28;5175;-63
2024/03/22 10:13:09;;;;;;;;;;;;;;;;;;5013946;28;3562;-58
2024/03/22 10:15:34;;;;;;;;;;;;;;;;;;5013400;28;5013;-62
2024/03/22 10:17:59;;;;;;;;;;;;;;;;;;5014096;28;5559;-67
2024/03/22 10:20:25;;;;;;;;;;;;;;;;;;5013236;28;5038;-64
2024/03/22 10:23:00;;;;;;;;;;;;;;;;;;5015275;28;5183;-66
2024/03/22 10:25:25;;;;;;;;;;;;;;;;;;5015623;28;1177;-66
2024/03/22 10:27:51;;;;;;;;;;;;;;;;;;5013370;28;4601;-65
2024/03/22 10:30:17;;;;;;;;;;;;;;;;;;5012565;28;5429;-65
2024/03/22 10:32:42;;;;;;;;;;;;;;;;;;5015039;28;4690;-64
2024/03/22 10:35:08;;;;;;;;;;;;;;;;;;5015459;28;5615;-65
2024/03/22 10:37:33;;;;;;;;;;;;;;;;;;5018521;28;4878;-64
2024/03/22 10:40:01;;;;;;;;;;;;;;;;;;5014849;28;3459;-67
2024/03/22 10:42:27;;;;;;;;;;;;;;;;;;5015882;28;5105;-72
2024/03/22 10:44:52;;;;;;;;;;;;;;;;;;5017628;28;5329;-70
2024/03/22 10:47:17;;;;;;;;;;;;;;;;;;5017328;28;4522;-69
2024/03/22 10:49:43;;;;;;;;;;;;;;;;;;4991284;28;4767;-68
2024/03/22 10:52:09;;;;;;;;;;;;;;;;;;5014773;28;2057;-69
2024/03/22 10:54:35;;;;;;;;;;;;;;;;;;5016988;28;5355;-68
2024/03/22 10:57:00;;;;;;;;;;;;;;;;;;5015614;28;4955;-68
2024/03/22 10:59:25;;;;;;;;;;;;;;;;;;5007467;28;5123;-65
2024/03/22 11:01:51;;;;;;;;;;;;;;;;;;5010867;28;5223;-62
2024/03/22 11:04:17;;;;;;;;;;;;;;;;;;5018497;28;1711;-62
2024/03/22 11:06:47;;;;;;;;;;;;;;;;;;5016292;28;5196;-62
2024/03/22 11:09:12;;;;;;;;;;;;;;;;;;5018404;28;4963;-64
2024/03/22 11:11:37;;;;;;;;;;;;;;;;;;5015619;28;5215;-62
2024/03/22 11:14:03;;;;;;;;;;;;;;;;;;5014976;28;5024;-63
2024/03/22 11:16:28;;;;;;;;;;;;;;;;;;5017079;28;5002;-62
2024/03/22 11:18:54;;;;;;;;;;;;;;;;;;5016792;28;1510;-60
2024/03/22 11:21:20;;;;;;;;;;;;;;;;;;5016534;28;4887;-59
2024/03/22 11:23:45;;;;;;;;;;;;;;;;;;5017918;28;5059;-64
2024/03/22 11:26:12;;;;;;;;;;;;;;;;;;5016220;28;5152;-64
2024/03/22 11:28:37;;;;;;;;;;;;;;;;;;5017278;28;4676;-64
2024/03/22 11:31:02;;;;;;;;;;;;;;;;;;5015822;28;3435;-64
2024/03/22 11:33:28;;;;;;;;;;;;;;;;;;5016044;28;4556;-64
2024/03/22 11:35:53;;;;;;;;;;;;;;;;;;5015828;28;4902;-67
2024/03/22 11:38:19;;;;;;;;;;;;;;;;;;5017063;28;5144;-72
2024/03/22 11:40:44;;;;;;;;;;;;;;;;;;5016214;28;5215;-65
2024/03/22 11:43:09;;;;;;;;;;;;;;;;;;5017811;28;1105;-65
2024/03/22 11:45:37;;;;;;;;;;;;;;;;;;5017004;28;5263;-68
2024/03/22 11:48:03;;;;;;;;;;;;;;;;;;5016770;28;4536;-63
2024/03/22 11:50:28;;;;;;;;;;;;;;;;;;5014304;28;5133;-65
2024/03/22 11:52:53;;;;;;;;;;;;;;;;;;5009775;28;4927;-65
2024/03/22 11:55:19;;;;;;;;;;;;;;;;;;5015852;28;3249;-65
2024/03/22 11:57:50;;;;;;;;;;;;;;;;;;5017708;28;4965;-65
2024/03/22 12:00:17;;;;;;;;;;;;;;;;;;5014950;28;5042;-64
2024/03/22 12:02:43;;;;;;;;;;;;;;;;;;5017378;28;5056;-65
2024/03/22 12:05:09;;;;;;;;;;;;;;;;;;5017119;28;5598;-63
2024/03/22 12:07:34;;;;;;;;;;;;;;;;;;5016696;28;5100;-59
2024/03/22 12:10:00;;;;;;;;;;;;;;;;;;5025121;28;3488;-59
2024/03/22 12:12:25;;;;;;;;;;;;;;;;;;5028589;28;4488;-60
2024/03/22 12:14:51;;;;;;;;;;;;;;;;;;5026537;28;4527;-61
2024/03/22 12:17:16;;;;;;;;;;;;;;;;;;5024332;28;5138;-60
2024/03/22 12:19:41;;;;;;;;;;;;;;;;;;5028186;28;5018;-61
2024/03/22 12:22:07;;;;;;;;;;;;;;;;;;5029150;28;1197;-60
2024/03/22 12:24:32;;;;;;;;;;;;;;;;;;5027344;28;5065;-60
2024/03/22 12:26:57;;;;;;;;;;;;;;;;;;5027433;28;4458;-60
2024/03/22 12:29:23;;;;;;;;;;;;;;;;;;5026820;28;4477;-61
2024/03/22 12:31:49;;;;;;;;;;;;;;;;;;5028150;28;4492;-61
2024/03/22 12:34:14;;;;;;;;;;;;;;;;;;5027595;28;1429;-61
2024/03/22 12:36:39;;;;;;;;;;;;;;;;;;5026658;28;4374;-60
2024/03/22 12:39:05;;;;;;;;;;;;;;;;;;5029110;28;4607;-60
2024/03/22 12:41:31;;;;;;;;;;;;;;;;;;5028950;28;4486;-61
2024/03/22 12:43:56;;;;;;;;;;;;;;;;;;5027413;28;4693;-61
2024/03/22 12:46:21;;;;;;;;;;;;;;;;;;5023302;28;1238;-60
2024/03/22 12:48:47;;;;;;;;;;;;;;;;;;5023103;28;5071;-60
2024/03/22 12:51:12;;;;;;;;;;;;;;;;;;5025383;28;4556;-61
2024/03/22 12:53:37;;;;;;;;;;;;;;;;;;5028803;28;4486;-60
2024/03/22 12:56:04;;;;;;;;;;;;;;;;;;5026654;28;5032;-60
2024/03/22 12:58:29;;;;;;;;;;;;;;;;;;5037169;28;5114;-60
2024/03/22 13:00:55;;;;;;;;;;;;;;;;;;5027875;28;3277;-60
2024/03/22 13:03:20;;;;;;;;;;;;;;;;;;5028656;28;5259;-59
2024/03/22 13:05:45;;;;;;;;;;;;;;;;;;5028161;28;4975;-60
2024/03/22 13:08:11;;;;;;;;;;;;;;;;;;5028687;28;5176;-60
2024/03/22 13:10:36;;;;;;;;;;;;;;;;;;5028136;28;4557;-60
2024/03/22 13:13:01;;;;;;;;;;;;;;;;;;5026668;28;2333;-59
2024/03/22 13:15:27;;;;;;;;;;;;;;;;;;5028298;28;4469;-60
2024/03/22 13:17:55;;;;;;;;;;;;;;;;;;5028599;28;4506;-60
2024/03/22 13:20:20;;;;;;;;;;;;;;;;;;5028253;28;4478;-61
2024/03/22 13:22:45;;;;;;;;;;;;;;;;;;5027943;28;5065;-60
2024/03/22 13:25:11;;;;;;;;;;;;;;;;;;5028646;28;1503;-60
2024/03/22 13:27:39;;;;;;;;;;;;;;;;;;5027134;28;4513;-59
2024/03/22 13:30:05;;;;;;;;;;;;;;;;;;5027578;28;5036;-60
2024/03/22 13:32:31;;;;;;;;;;;;;;;;;;5028353;28;5276;-60
2024/03/22 13:34:56;;;;;;;;;;;;;;;;;;5027445;28;5827;-62
2024/03/22 13:37:21;;;;;;;;;;;;;;;;;;5028599;28;1184;-60
2024/03/22 13:39:50;;;;;;;;;;;;;;;;;;5027619;28;4859;-60
2024/03/22 13:42:15;;;;;;;;;;;;;;;;;;5020245;28;4602;-59
2024/03/22 13:44:41;;;;;;;;;;;;;;;;;;5022394;28;5499;-59
2024/03/22 13:47:07;;;;;;;;;;;;;;;;;;5019526;28;4877;-59
2024/03/22 13:49:32;;;;;;;;;;;;;;;;;;5025226;28;5447;-59
2024/03/22 13:51:58;;;;;;;;;;;;;;;;;;5018240;28;1914;-59
2024/03/22 13:54:24;;;;;;;;;;;;;;;;;;5023972;28;5079;-59
2024/03/22 13:56:49;;;;;;;;;;;;;;;;;;5023430;28;5042;-59
2024/03/22 13:59:15;;;;;;;;;;;;;;;;;;5023617;28;5226;-59
2024/03/22 14:01:41;;;;;;;;;;;;;;;;;;5018243;28;4581;-59
2024/03/22 14:04:07;;;;;;;;;;;;;;;;;;5024675;28;1234;-60
2024/03/22 14:06:32;;;;;;;;;;;;;;;;;;5025823;28;4952;-60
2024/03/22 14:09:01;;;;;;;;;;;;;;;;;;5023520;28;5093;-60
2024/03/22 14:11:27;;;;;;;;;;;;;;;;;;5024780;28;5108;-60
2024/03/22 14:13:52;;;;;;;;;;;;;;;;;;5020429;28;5144;-61
2024/03/22 14:16:18;;;;;;;;;;;;;;;;;;5025519;28;1538;-59
2024/03/22 14:18:43;;;;;;;;;;;;;;;;;;5022430;28;4699;-60
2024/03/22 14:21:08;;;;;;;;;;;;;;;;;;5021911;28;5063;-59
2024/03/22 14:23:34;;;;;;;;;;;;;;;;;;5023982;28;4907;-59
2024/03/22 14:25:59;;;;;;;;;;;;;;;;;;5020674;28;5114;-60
2024/03/22 14:28:24;;;;;;;;;;;;;;;;;;5024369;28;1428;-58
2024/03/22 14:30:50;;;;;;;;;;;;;;;;;;5024788;28;5096;-60
2024/03/22 14:33:16;;;;;;;;;;;;;;;;;;5021614;28;4737;-58
2024/03/22 14:35:42;;;;;;;;;;;;;;;;;;5024538;28;5145;-59
2024/03/22 14:38:07;;;;;;;;;;;;;;;;;;5022218;28;5173;-58
2024/03/22 14:40:36;;;;;;;;;;;;;;;;;;5022940;28;4551;-59
2024/03/22 14:43:02;;;;;;;;;;;;;;;;;;5021572;28;3460;-60
2024/03/22 14:45:27;;;;;;;;;;;;;;;;;;5021916;28;5144;-62
2024/03/22 14:47:52;;;;;;;;;;;;;;;;;;5023520;28;4492;-61
2024/03/22 14:50:18;;;;;;;;;;;;;;;;;;5017960;28;5131;-61
2024/03/22 14:52:43;;;;;;;;;;;;;;;;;;5021890;28;5043;-60
2024/03/22 14:55:09;;;;;;;;;;;;;;;;;;5021882;28;1479;-61
2024/03/22 14:57:35;;;;;;;;;;;;;;;;;;5020323;28;4552;-61
2024/03/22 15:00:01;;;;;;;;;;;;;;;;;;5024456;28;4760;-61
2024/03/22 15:02:26;;;;;;;;;;;;;;;;;;5025239;28;4968;-60
2024/03/22 15:04:51;;;;;;;;;;;;;;;;;;5025128;28;5155;-59
2024/03/22 15:07:17;;;;;;;;;;;;;;;;;;5023124;28;2253;-60
2024/03/22 15:09:42;;;;;;;;;;;;;;;;;;5023105;28;5240;-61
2024/03/22 15:12:09;;;;;;;;;;;;;;;;;;5022128;28;5230;-59
2024/03/22 15:14:34;;;;;;;;;;;;;;;;;;5021491;28;5142;-62
2024/03/22 15:17:00;;;;;;;;;;;;;;;;;;5024190;28;4534;-61
2024/03/22 15:19:25;;;;;;;;;;;;;;;;;;5024860;28;1444;-60
2024/03/22 15:21:51;;;;;;;;;;;;;;;;;;5025196;28;4902;-60
2024/03/22 15:24:16;;;;;;;;;;;;;;;;;;5025376;28;5307;-61
2024/03/22 15:26:42;;;;;;;;;;;;;;;;;;5026710;28;4867;-60
2024/03/22 15:29:08;;;;;;;;;;;;;;;;;;5027144;28;5358;-60
2024/03/22 15:31:33;;;;;;;;;;;;;;;;;;5022925;28;5348;-60
2024/03/22 15:33:59;;;;;;;;;;;;;;;;;;5027506;28;3403;-60
2024/03/22 15:36:24;;;;;;;;;;;;;;;;;;5026332;28;6162;-60
2024/03/22 15:38:49;;;;;;;;;;;;;;;;;;5028061;28;4981;-61
2024/03/22 15:41:18;;;;;;;;;;;;;;;;;;5027347;28;5045;-60
2024/03/22 15:43:43;;;;;;;;;;;;;;;;;;5026718;28;5304;-60
2024/03/22 15:46:09;;;;;;;;;;;;;;;;;;5027458;28;1340;-60
2024/03/22 15:48:34;;;;;;;;;;;;;;;;;;5024921;28;5520;-55
2024/03/22 15:50:59;;;;;;;;;;;;;;;;;;5021271;28;4501;-55
2024/03/22 15:53:25;;;;;;;;;;;;;;;;;;5023366;28;5326;-59
2024/03/22 15:55:50;;;;;;;;;;;;;;;;;;5028125;28;5162;-59
2024/03/22 15:58:16;;;;;;;;;;;;;;;;;;5027949;28;3270;-59
2024/03/22 16:00:41;;;;;;;;;;;;;;;;;;5029494;28;4968;-59
2024/03/22 16:03:06;;;;;;;;;;;;;;;;;;5029422;28;5046;-59
2024/03/22 16:05:32;;;;;;;;;;;;;;;;;;5025578;28;5152;-59
2024/03/22 16:07:57;;;;;;;;;;;;;;;;;;5029545;28;4729;-59
2024/03/22 16:10:22;;;;;;;;;;;;;;;;;;5025805;28;3376;-59
2024/03/22 16:12:48;;;;;;;;;;;;;;;;;;5029487;28;4970;-59
2024/03/22 16:15:13;;;;;;;;;;;;;;;;;;5017400;28;5194;-59
2024/03/22 16:17:40;;;;;;;;;;;;;;;;;;5029213;28;4955;-59
2024/03/22 16:20:09;;;;;;;;;;;;;;;;;;5024936;28;5167;-59
2024/03/22 16:22:35;;;;;;;;;;;;;;;;;;5027457;28;4516;-60
2024/03/22 16:25:00;;;;;;;;;;;;;;;;;;5028980;28;2148;-60
2024/03/22 16:27:25;;;;;;;;;;;;;;;;;;5024525;28;5483;-59
2024/03/22 16:29:51;;;;;;;;;;;;;;;;;;5029079;28;4620;-59
2024/03/22 16:32:16;;;;;;;;;;;;;;;;;;5029074;28;4926;-59
2024/03/22 16:34:42;;;;;;;;;;;;;;;;;;5025914;28;5236;-62
2024/03/22 16:37:07;;;;;;;;;;;;;;;;;;5027025;28;3514;-59
2024/03/22 16:39:32;;;;;;;;;;;;;;;;;;5027023;28;4916;-59
2024/03/22 16:41:58;;;;;;;;;;;;;;;;;;5023803;28;4827;-59
2024/03/22 16:44:23;;;;;;;;;;;;;;;;;;5024676;28;4743;-60
2024/03/22 16:46:49;;;;;;;;;;;;;;;;;;5028023;28;5173;-60
2024/03/22 16:49:14;;;;;;;;;;;;;;;;;;5021886;28;3355;-60
2024/03/22 16:51:39;;;;;;;;;;;;;;;;;;5017161;28;4610;-59